createdAt,value
2023-04-09T00:00:12.652Z,23.20
2023-04-09T00:03:36.676Z,26.10
2023-04-09T00:06:39.717Z,23.90
2023-04-09T00:09:42.691Z,24.60
2023-04-09T00:12:45.943Z,25.60
2023-04-09T00:15:48.990Z,29.00
2023-04-09T00:18:52.403Z,33.60
2023-04-09T00:21:56.121Z,29.00
2023-04-09T00:24:59.198Z,28.00
2023-04-09T00:28:02.771Z,31.50
2023-04-09T00:31:06.044Z,32.20
2023-04-09T00:34:09.052Z,32.90
2023-04-09T00:37:13.295Z,32.20
2023-04-09T00:40:16.315Z,34.50
2023-04-09T00:43:19.481Z,34.20
2023-04-09T00:46:22.541Z,32.70
2023-04-09T00:49:26.567Z,30.60
2023-04-09T00:52:31.083Z,32.50
2023-04-09T00:55:34.406Z,30.40
2023-04-09T00:58:37.425Z,30.00
2023-04-09T01:01:40.664Z,27.50
2023-04-09T01:04:44.666Z,28.20
2023-04-09T01:08:08.778Z,27.20
2023-04-09T01:11:21.998Z,28.20
2023-04-09T01:14:36.052Z,28.50
2023-04-09T01:18:03.684Z,29.70
2023-04-09T01:21:16.388Z,28.60
2023-04-09T01:24:37.113Z,28.60
2023-04-09T01:27:55.095Z,26.80
2023-04-09T01:31:03.056Z,26.80
2023-04-09T01:34:08.840Z,26.50
2023-04-09T01:37:13.300Z,27.90
2023-04-09T01:40:16.756Z,27.50
2023-04-09T01:43:20.583Z,28.10
2023-04-09T01:46:25.478Z,28.50
2023-04-09T01:49:29.008Z,29.70
2023-04-09T01:52:32.292Z,23.90
2023-04-09T01:55:35.484Z,23.60
2023-04-09T01:58:39.070Z,24.70
2023-04-09T02:02:09.194Z,25.20
2023-04-09T02:05:14.262Z,24.40
2023-04-09T02:08:20.656Z,25.70
2023-04-09T02:11:24.015Z,24.40
2023-04-09T02:14:28.489Z,25.10
2023-04-09T02:17:31.557Z,25.20
2023-04-09T02:20:34.755Z,27.20
2023-04-09T02:23:37.756Z,28.10
2023-04-09T02:26:41.152Z,31.00
2023-04-09T02:29:44.303Z,33.50
2023-04-09T02:32:48.517Z,33.30
2023-04-09T02:35:51.760Z,32.50
2023-04-09T02:38:55.623Z,32.80
2023-04-09T02:41:58.742Z,31.50
2023-04-09T02:45:02.584Z,31.70
2023-04-09T02:48:07.411Z,31.00
2023-04-09T02:51:11.475Z,30.60
2023-04-09T02:54:14.591Z,30.30
2023-04-09T02:57:17.804Z,29.50
2023-04-09T03:00:20.870Z,30.50
2023-04-09T03:03:23.986Z,31.20
2023-04-09T03:06:27.166Z,31.30
2023-04-09T03:09:30.891Z,29.00
2023-04-09T03:12:33.879Z,28.40
2023-04-09T03:15:36.845Z,28.70
2023-04-09T03:18:39.902Z,28.90
2023-04-09T03:21:42.999Z,28.20
2023-04-09T03:24:46.664Z,31.30
2023-04-09T03:27:50.057Z,35.60
2023-04-09T03:30:58.692Z,31.80
2023-04-09T03:34:02.543Z,28.50
2023-04-09T03:37:06.785Z,30.40
2023-04-09T03:40:10.678Z,31.70
2023-04-09T03:43:13.836Z,30.60
2023-04-09T03:46:20.982Z,30.40
2023-04-09T03:49:24.668Z,30.20
2023-04-09T03:52:28.597Z,29.60
2023-04-09T03:55:37.952Z,27.30
2023-04-09T03:58:43.281Z,26.90
2023-04-09T04:01:48.243Z,25.60
2023-04-09T04:04:52.770Z,24.80
2023-04-09T04:07:56.712Z,25.20
2023-04-09T04:11:05.032Z,24.20
2023-04-09T04:14:08.334Z,25.20
2023-04-09T04:17:11.887Z,23.80
2023-04-09T04:20:15.396Z,23.10
2023-04-09T04:23:29.139Z,21.80
2023-04-09T04:26:37.772Z,22.50
2023-04-09T04:29:40.976Z,22.30
2023-04-09T04:32:57.309Z,21.70
2023-04-09T04:36:06.538Z,19.00
2023-04-09T04:39:22.565Z,17.20
2023-04-09T04:42:30.334Z,19.60
2023-04-09T04:45:34.526Z,19.60
2023-04-09T04:48:43.463Z,22.10
2023-04-09T04:51:46.651Z,22.20
2023-04-09T04:54:51.079Z,22.80
2023-04-09T04:57:57.401Z,23.30
2023-04-09T05:01:02.627Z,23.00
2023-04-09T05:04:06.196Z,24.90
2023-04-09T05:07:11.109Z,24.40
2023-04-09T05:10:18.468Z,24.30
2023-04-09T05:13:22.828Z,26.10
2023-04-09T05:16:27.193Z,25.20
2023-04-09T05:19:37.048Z,30.20
2023-04-09T05:22:40.203Z,29.60
2023-04-09T05:25:43.762Z,30.70
2023-04-09T05:28:53.522Z,29.80
2023-04-09T05:31:58.169Z,29.10
2023-04-09T05:35:05.816Z,28.20
2023-04-09T05:38:10.781Z,26.70
2023-04-09T05:41:15.082Z,25.70
2023-04-09T05:44:27.752Z,26.40
2023-04-09T05:47:36.615Z,27.20
2023-04-09T05:50:55.058Z,25.90
2023-04-09T05:53:59.759Z,26.20
2023-04-09T05:57:06.786Z,27.70
2023-04-09T06:00:13.484Z,27.70
2023-04-09T06:03:23.925Z,27.20
2023-04-09T06:06:27.176Z,28.50
2023-04-09T06:09:30.312Z,29.20
2023-04-09T06:12:35.398Z,30.10
2023-04-09T06:15:39.632Z,30.70
2023-04-09T06:18:42.708Z,30.10
2023-04-09T06:21:45.791Z,29.90
2023-04-09T06:24:48.851Z,30.80
2023-04-09T06:27:52.210Z,33.20
2023-04-09T06:30:55.485Z,27.80
2023-04-09T06:33:58.554Z,28.50
2023-04-09T06:37:01.694Z,28.20
2023-04-09T06:40:05.008Z,27.80
2023-04-09T06:43:08.288Z,26.40
2023-04-09T06:46:21.302Z,27.40
2023-04-09T06:49:24.420Z,27.10
2023-04-09T06:52:27.561Z,27.90
2023-04-09T06:55:30.851Z,26.20
2023-04-09T06:58:34.024Z,25.10
2023-04-09T07:01:37.909Z,25.80
2023-04-09T07:04:41.568Z,26.50
2023-04-09T07:07:44.792Z,26.30
2023-04-09T07:10:47.793Z,31.30
2023-04-09T07:13:51.391Z,29.50
2023-04-09T07:16:54.600Z,26.60
2023-04-09T07:19:57.697Z,28.90
2023-04-09T07:23:01.072Z,27.60
2023-04-09T07:26:05.390Z,28.00
2023-04-09T07:29:08.368Z,28.80
2023-04-09T07:32:11.611Z,30.40
2023-04-09T07:35:14.765Z,28.90
2023-04-09T07:38:17.752Z,28.40
2023-04-09T07:41:20.970Z,26.90
2023-04-09T07:44:24.630Z,27.70
2023-04-09T07:47:28.592Z,27.10
2023-04-09T07:50:31.654Z,28.50
2023-04-09T07:53:34.961Z,27.80
2023-04-09T07:56:38.110Z,26.20
2023-04-09T07:59:41.169Z,34.20
2023-04-09T08:02:44.566Z,29.70
2023-04-09T08:05:47.886Z,28.60
2023-04-09T08:08:51.159Z,28.00
2023-04-09T08:11:54.377Z,27.30
2023-04-09T08:14:57.356Z,28.60
2023-04-09T08:18:02.308Z,27.10
2023-04-09T08:21:06.248Z,26.40
2023-04-09T08:24:12.601Z,26.20
2023-04-09T08:27:16.118Z,27.40
2023-04-09T08:30:19.213Z,25.50
2023-04-09T08:33:22.340Z,22.70
2023-04-09T08:36:26.411Z,22.40
2023-04-09T08:39:29.650Z,21.40
2023-04-09T08:42:35.708Z,22.20
2023-04-09T08:45:41.507Z,21.90
2023-04-09T08:48:48.830Z,21.80
2023-04-09T08:51:51.913Z,22.50
2023-04-09T08:54:54.988Z,22.60
2023-04-09T08:57:58.361Z,21.90
2023-04-09T09:01:01.905Z,21.90
2023-04-09T09:04:10.001Z,27.80
2023-04-09T09:07:13.500Z,22.60
2023-04-09T09:10:17.412Z,20.80
2023-04-09T09:13:24.360Z,21.80
2023-04-09T09:16:27.827Z,22.70
2023-04-09T09:19:36.476Z,21.40
2023-04-09T09:22:56.017Z,18.60
2023-04-09T09:25:59.531Z,19.50
2023-04-09T09:29:04.158Z,18.90
2023-04-09T09:32:14.249Z,19.30
2023-04-09T09:35:17.304Z,19.20
2023-04-09T09:38:21.008Z,18.30
2023-04-09T09:41:24.962Z,19.10
2023-04-09T09:44:32.889Z,18.90
2023-04-09T09:47:37.559Z,19.90
2023-04-09T09:50:44.453Z,19.70
2023-04-09T09:53:52.361Z,18.50
2023-04-09T09:56:59.921Z,19.20
2023-04-09T10:00:04.576Z,21.20
2023-04-09T10:03:20.046Z,20.20
2023-04-09T10:06:24.166Z,20.30
2023-04-09T10:09:28.211Z,19.90
2023-04-09T10:12:32.862Z,20.80
2023-04-09T10:15:36.490Z,22.40
2023-04-09T10:18:40.799Z,22.50
2023-04-09T10:21:54.806Z,21.80
2023-04-09T10:24:59.951Z,22.70
2023-04-09T10:28:14.778Z,22.70
2023-04-09T10:31:20.780Z,20.90
2023-04-09T10:34:27.472Z,19.90
2023-04-09T10:37:31.860Z,18.80
2023-04-09T10:41:16.381Z,18.20
2023-04-09T10:44:24.606Z,23.00
2023-04-09T10:47:36.620Z,22.60
2023-04-09T10:50:43.063Z,23.90
2023-04-09T10:53:46.354Z,24.50
2023-04-09T10:57:07.594Z,23.30
2023-04-09T11:00:11.464Z,24.90
2023-04-09T11:03:30.808Z,24.70
2023-04-09T11:06:37.359Z,23.50
2023-04-09T11:09:42.444Z,24.50
2023-04-09T11:12:49.482Z,23.60
2023-04-09T11:15:52.861Z,23.70
2023-04-09T11:18:57.391Z,22.90
2023-04-09T11:22:00.436Z,23.30
2023-04-09T11:25:03.695Z,23.20
2023-04-09T11:28:08.182Z,23.70
2023-04-09T11:31:11.309Z,22.50
2023-04-09T11:34:14.452Z,23.30
2023-04-09T11:37:18.508Z,22.50
2023-04-09T11:40:23.622Z,21.60
2023-04-09T11:43:26.596Z,24.40
2023-04-09T11:46:32.732Z,24.30
2023-04-09T11:49:36.089Z,23.80
2023-04-09T11:52:40.270Z,22.70
2023-04-09T11:55:43.455Z,23.80
2023-04-09T11:58:47.904Z,23.30
2023-04-09T12:01:52.049Z,24.00
2023-04-09T12:04:55.602Z,22.40
2023-04-09T12:08:08.478Z,21.50
2023-04-09T12:11:13.079Z,21.60
2023-04-09T12:14:17.683Z,22.10
2023-04-09T12:17:21.268Z,20.00
2023-04-09T12:20:35.929Z,21.30
2023-04-09T12:23:38.991Z,23.00
2023-04-09T12:26:42.056Z,26.00
2023-04-09T12:29:45.078Z,28.90
2023-04-09T12:32:48.329Z,31.00
2023-04-09T12:35:51.724Z,31.80
2023-04-09T12:38:54.903Z,30.00
2023-04-09T12:41:57.953Z,31.10
2023-04-09T12:45:01.333Z,29.50
2023-04-09T12:48:04.487Z,32.40
2023-04-09T12:51:07.671Z,28.00
2023-04-09T12:54:11.083Z,27.40
2023-04-09T12:57:14.051Z,25.00
2023-04-09T13:00:17.143Z,27.10
2023-04-09T13:03:21.351Z,27.30
2023-04-09T13:06:24.479Z,25.80
2023-04-09T13:09:27.830Z,26.60
2023-04-09T13:12:31.425Z,25.80
2023-04-09T13:15:34.502Z,25.40
2023-04-09T13:18:37.515Z,24.20
2023-04-09T13:21:40.599Z,21.90
2023-04-09T13:24:43.655Z,19.20
2023-04-09T13:27:46.828Z,24.60
2023-04-09T13:30:49.944Z,16.20
2023-04-09T13:33:52.948Z,15.30
2023-04-09T13:36:56.360Z,16.20
2023-04-09T13:39:59.784Z,13.90
2023-04-09T13:43:02.894Z,14.30
2023-04-09T13:46:06.275Z,14.40
2023-04-09T13:49:09.254Z,13.60
2023-04-09T13:52:14.201Z,13.00
2023-04-09T13:55:17.303Z,13.70
2023-04-09T13:58:22.528Z,12.80
2023-04-09T14:01:27.522Z,15.00
2023-04-09T14:04:30.663Z,13.50
2023-04-09T14:07:33.792Z,12.60
2023-04-09T14:10:36.813Z,12.70
2023-04-09T14:13:39.862Z,13.80
2023-04-09T14:16:43.170Z,16.20
2023-04-09T14:19:46.215Z,13.70
2023-04-09T14:22:49.548Z,12.90
2023-04-09T14:25:53.468Z,13.00
2023-04-09T14:28:56.471Z,11.90
2023-04-09T14:32:01.030Z,11.50
2023-04-09T14:35:04.699Z,12.00
2023-04-09T14:38:10.032Z,11.80
2023-04-09T14:41:13.147Z,13.80
2023-04-09T14:44:16.256Z,13.00
2023-04-09T14:47:19.369Z,13.50
2023-04-09T14:50:22.415Z,13.70
2023-04-09T14:53:25.476Z,14.40
2023-04-09T14:56:28.436Z,14.20
2023-04-09T14:59:31.415Z,12.90
2023-04-09T15:02:35.433Z,12.70
2023-04-09T15:05:39.288Z,11.70
2023-04-09T15:08:42.248Z,11.80
2023-04-09T15:11:45.286Z,11.20
2023-04-09T15:14:48.308Z,11.70
2023-04-09T15:17:51.459Z,10.90
2023-04-09T15:20:54.485Z,11.40
2023-04-09T15:23:59.087Z,10.30
2023-04-09T15:27:02.120Z,12.90
2023-04-09T15:30:05.952Z,13.00
2023-04-09T15:33:08.972Z,13.20
2023-04-09T15:36:12.111Z,13.50
2023-04-09T15:39:15.232Z,13.80
2023-04-09T15:42:22.448Z,13.70
2023-04-09T15:45:26.259Z,12.90
2023-04-09T15:48:29.270Z,13.30
2023-04-09T15:51:32.422Z,13.50
2023-04-09T15:54:35.367Z,15.60
2023-04-09T15:57:38.751Z,14.70
2023-04-09T16:00:42.070Z,15.70
2023-04-09T16:03:50.582Z,16.30
2023-04-09T16:06:55.463Z,16.10
2023-04-09T16:10:00.707Z,17.50
2023-04-09T16:13:03.860Z,16.80
2023-04-09T16:16:07.319Z,16.50
2023-04-09T16:19:10.305Z,16.30
2023-04-09T16:22:13.392Z,15.00
2023-04-09T16:25:16.456Z,15.40
2023-04-09T16:28:21.962Z,15.70
2023-04-09T16:31:27.483Z,15.70
2023-04-09T16:34:32.150Z,16.40
2023-04-09T16:37:35.338Z,17.10
2023-04-09T16:40:38.299Z,19.10
2023-04-09T16:43:41.513Z,22.40
2023-04-09T16:46:47.662Z,23.30
2023-04-09T16:49:51.255Z,23.30
2023-04-09T16:52:56.763Z,23.10
2023-04-09T16:55:59.816Z,21.20
2023-04-09T16:59:05.158Z,19.60
2023-04-09T17:02:08.973Z,22.30
2023-04-09T17:05:12.330Z,22.40
2023-04-09T17:08:17.226Z,20.10
2023-04-09T17:11:21.437Z,20.10
2023-04-09T17:14:24.509Z,21.60
2023-04-09T17:17:29.162Z,19.50
2023-04-09T17:20:32.313Z,19.50
2023-04-09T17:23:36.281Z,20.70
2023-04-09T17:26:43.732Z,22.20
2023-04-09T17:29:46.886Z,22.70
2023-04-09T17:32:51.163Z,30.20
2023-04-09T17:35:54.399Z,26.50
2023-04-09T17:38:57.964Z,27.20
2023-04-09T17:42:03.391Z,23.50
2023-04-09T17:45:07.488Z,20.50
2023-04-09T17:48:10.880Z,26.40
2023-04-09T17:51:16.438Z,24.50
2023-04-09T17:54:19.495Z,22.90
2023-04-09T17:57:22.467Z,23.20
2023-04-09T18:00:25.808Z,20.80
2023-04-09T18:03:28.903Z,21.00
2023-04-09T18:06:32.171Z,20.40
2023-04-09T18:09:35.170Z,20.20
2023-04-09T18:12:38.216Z,19.60
2023-04-09T18:15:41.531Z,13.00
2023-04-09T18:18:44.557Z,11.80
2023-04-09T18:21:47.521Z,10.70
2023-04-09T18:24:52.022Z,11.60
2023-04-09T18:27:54.972Z,10.50
2023-04-09T18:30:58.880Z,9.70
2023-04-09T18:34:02.183Z,10.70
2023-04-09T18:37:05.332Z,10.60
2023-04-09T18:40:15.946Z,15.30
2023-04-09T18:43:18.915Z,14.80
2023-04-09T18:46:22.918Z,23.70
2023-04-09T18:49:27.024Z,31.00
2023-04-09T18:52:29.985Z,25.10
2023-04-09T18:55:35.882Z,23.00
2023-04-09T18:58:38.949Z,21.10
2023-04-09T19:01:42.383Z,20.50
2023-04-09T19:04:45.821Z,20.50
2023-04-09T19:07:48.914Z,26.90
2023-04-09T19:10:53.602Z,36.40
2023-04-09T19:13:56.724Z,37.40
2023-04-09T19:16:59.849Z,38.20
2023-04-09T19:20:03.017Z,38.30
2023-04-09T19:23:06.709Z,38.90
2023-04-09T19:26:09.755Z,38.70
2023-04-09T19:29:12.764Z,42.00
2023-04-09T19:32:16.250Z,46.20
2023-04-09T19:35:19.276Z,45.70
2023-04-09T19:38:22.416Z,42.90
2023-04-09T19:41:25.389Z,37.60
2023-04-09T19:44:28.415Z,34.00
2023-04-09T19:47:31.765Z,30.80
2023-04-09T19:50:39.017Z,29.30
2023-04-09T19:53:43.539Z,30.10
2023-04-09T19:56:47.548Z,28.90
2023-04-09T19:59:52.245Z,28.70
2023-04-09T20:02:55.835Z,27.30
2023-04-09T20:05:59.165Z,26.90
2023-04-09T20:09:02.216Z,27.40
2023-04-09T20:12:07.035Z,24.60
2023-04-09T20:15:10.495Z,26.40
2023-04-09T20:18:13.502Z,29.40
2023-04-09T20:21:16.527Z,28.00
2023-04-09T20:24:19.573Z,30.70
2023-04-09T20:27:22.669Z,27.30
2023-04-09T20:30:25.936Z,31.00
2023-04-09T20:33:28.941Z,29.00
2023-04-09T20:36:32.421Z,27.30
2023-04-09T20:39:35.439Z,28.00
2023-04-09T20:42:40.470Z,29.40
2023-04-09T20:45:43.494Z,25.70
2023-04-09T20:48:46.554Z,25.30
2023-04-09T20:51:50.048Z,25.00
2023-04-09T20:54:53.408Z,26.90
2023-04-09T20:57:57.040Z,25.70
2023-04-09T21:01:07.795Z,25.80
2023-04-09T21:04:11.364Z,24.70
2023-04-09T21:07:14.697Z,24.80
2023-04-09T21:10:17.916Z,26.20
2023-04-09T21:13:21.054Z,24.90
2023-04-09T21:16:26.073Z,25.90
2023-04-09T21:19:29.158Z,25.70
2023-04-09T21:22:32.114Z,26.40
2023-04-09T21:25:35.162Z,25.90
2023-04-09T21:28:38.214Z,25.50
2023-04-09T21:31:41.831Z,26.90
2023-04-09T21:34:44.804Z,27.50
2023-04-09T21:37:48.223Z,26.60
2023-04-09T21:40:51.309Z,27.50
2023-04-09T21:43:54.385Z,28.80
2023-04-09T21:46:57.476Z,28.80
2023-04-09T21:50:00.628Z,29.20
2023-04-09T21:53:03.636Z,28.70
2023-04-09T21:56:07.025Z,27.50
2023-04-09T21:59:09.940Z,27.60
2023-04-09T22:02:13.100Z,28.10
2023-04-09T22:05:16.349Z,28.50
2023-04-09T22:08:19.342Z,27.80
2023-04-09T22:11:28.149Z,28.20
2023-04-09T22:14:33.840Z,29.90
2023-04-09T22:17:36.845Z,29.80
2023-04-09T22:20:39.941Z,28.80
2023-04-09T22:23:43.752Z,30.70
2023-04-09T22:26:47.044Z,29.70
2023-04-09T22:29:50.311Z,29.70
2023-04-09T22:32:53.338Z,30.30
2023-04-09T22:35:56.661Z,30.40
2023-04-09T22:38:59.664Z,30.00
2023-04-09T22:42:03.080Z,30.40
2023-04-09T22:45:06.656Z,29.70
2023-04-09T22:48:09.738Z,30.60
2023-04-09T22:51:14.147Z,29.10
2023-04-09T22:54:17.265Z,30.20
2023-04-09T22:57:20.460Z,28.90
2023-04-09T23:00:23.555Z,28.80
2023-04-09T23:03:26.719Z,29.30
2023-04-09T23:06:30.999Z,29.60
2023-04-09T23:09:34.077Z,29.80
2023-04-09T23:12:37.160Z,29.90
2023-04-09T23:15:41.329Z,31.40
2023-04-09T23:18:44.457Z,29.90
2023-04-09T23:21:47.400Z,30.00
2023-04-09T23:24:50.613Z,31.30
2023-04-09T23:27:53.617Z,30.70
2023-04-09T23:30:56.914Z,31.30
2023-04-09T23:33:59.876Z,29.70
2023-04-09T23:37:02.898Z,30.50
2023-04-09T23:40:07.213Z,29.20
2023-04-09T23:43:10.242Z,29.80
2023-04-09T23:46:13.211Z,28.80
2023-04-09T23:49:16.268Z,30.10
2023-04-09T23:52:19.231Z,32.90
2023-04-09T23:55:22.303Z,30.90
2023-04-09T23:58:25.479Z,29.70
